CFY4 weather

Winters Aire Park Airport
Indus, Alberta, Canada

Public forecast

Using degrees Celsius for public forecast. Weather courtesy of forecast.io.

METAR (pilot weather report)

Closest report is Calgary International Airport, 15.1 nm (28.0 km) NW. Retrieved 2019/05/20 00:00 UTC (51 minutes ago):

CYYC 200000Z 19011G18KT 160V220 40SM SCT060 SCT190 11/M01 A3004 RMK SC3AC1 AC TR SLP203 DENSITY ALT 3900FT

TAF (pilot weather forecast)

Forecast is more than 12 hours old.

Closest forecast is Calgary International Airport, 15.1 nm (28.0 km) NW. Retrieved 2019/05/19 00:42 UTC (1 day ago):

TAF CYYC 192338Z 2000/2024 19012G22KT P6SM BKN060 BECMG 2001/2003 18010KT FM200500 18006KT P6SM SKC FM201500 17012KT P6SM SCT020 BECMG 2016/2018 16015G25KT BKN050 RMK NXT FCST BY 200300Z